Time;durP1;ratioP1;P1;durP2;ratioP2;P2;SDS_P1;SDS_P2;PMS_P1;PMS_P2;Temp;Humidity;BMP_temperature;BMP_pressure;BME280_temperature;BME280_humidity;BME280_pressure;Samples;Min_cycle;Max_cycle;Signal;HPM_P1;HPM_P2
2022/08/26 00:00:39;;;;;;;;;;;14.50;99.90;;;;;;5015070;28;19925;-72
2022/08/26 00:03:05;;;;;;;;;;;14.50;99.90;;;;;;5016846;28;19925;-71
2022/08/26 00:05:30;;;;;;;;;;;14.50;99.90;;;;;;5019574;28;19921;-72
2022/08/26 00:07:56;;;;;;;;;;;14.50;99.90;;;;;;5021800;28;19925;-72
2022/08/26 00:10:22;;;;;;;;;;;14.50;99.90;;;;;;5016557;28;20402;-72
2022/08/26 00:12:48;;;;;;;;;;;14.40;99.90;;;;;;5008462;28;20388;-72
2022/08/26 00:15:15;;;;;;;;;;;14.40;99.90;;;;;;5020045;28;19936;-72
2022/08/26 00:17:40;;;;;;;;;;;14.40;99.90;;;;;;5001713;28;19929;-72
2022/08/26 00:20:07;;;;;;;;;;;14.40;99.90;;;;;;4998729;28;19939;-72
2022/08/26 00:22:33;;;;;;;;;;;14.50;99.90;;;;;;5000071;28;20410;-72
2022/08/26 00:24:58;;;;;;;;;;;14.50;99.90;;;;;;5012681;28;19941;-72
2022/08/26 00:27:24;;;;;;;;;;;14.60;99.90;;;;;;5002917;28;19975;-72
2022/08/26 00:29:49;;;;;;;;;;;14.70;99.90;;;;;;5000134;28;20024;-72
2022/08/26 00:32:15;;;;;;;;;;;14.80;99.90;;;;;;5005632;28;20016;-72
2022/08/26 00:34:40;;;;;;;;;;;14.80;99.90;;;;;;5002766;28;20262;-72
2022/08/26 00:37:06;;;;;;;;;;;14.70;99.90;;;;;;5009722;28;19917;-72
2022/08/26 00:39:31;;;;;;;;;;;14.60;99.90;;;;;;5002715;28;19941;-72
2022/08/26 00:41:57;;;;;;;;;;;14.50;99.90;;;;;;5003089;28;19918;-72
2022/08/26 00:44:22;;;;;;;;;;;14.40;99.90;;;;;;4999159;28;19926;-72
2022/08/26 00:46:50;;;;;;;;;;;14.30;99.90;;;;;;5003423;28;19921;-71
2022/08/26 00:49:20;;;;;;;;;;;14.30;99.90;;;;;;5001614;28;20484;-72
2022/08/26 00:51:48;;;;;;;;;;;14.20;99.90;;;;;;5004582;28;20053;-72
2022/08/26 00:54:14;;;;;;;;;;;14.20;99.90;;;;;;5004123;28;20420;-72
2022/08/26 00:56:39;;;;;;;;;;;14.10;99.90;;;;;;5002971;28;19917;-72
2022/08/26 00:59:06;;;;;;;;;;;14.10;99.90;;;;;;5003008;28;20250;-72
2022/08/26 01:01:32;;;;;;;;;;;14.10;99.90;;;;;;4999514;28;20328;-72
2022/08/26 01:03:58;;;;;;;;;;;14.00;99.90;;;;;;5005741;28;20439;-72
2022/08/26 01:06:25;;;;;;;;;;;14.00;99.90;;;;;;5006001;28;20343;-72
2022/08/26 01:08:51;;;;;;;;;;;14.00;99.90;;;;;;4997077;28;20400;-73
2022/08/26 01:11:17;;;;;;;;;;;13.90;99.90;;;;;;4997651;28;19984;-72
2022/08/26 01:13:43;;;;;;;;;;;13.90;99.90;;;;;;5000302;28;19948;-72
2022/08/26 01:16:11;;;;;;;;;;;13.90;99.90;;;;;;4996712;28;19961;-72
2022/08/26 01:18:39;;;;;;;;;;;13.80;99.90;;;;;;5016474;28;19925;-72
2022/08/26 01:21:05;;;;;;;;;;;13.80;99.90;;;;;;5020232;28;19924;-72
2022/08/26 01:23:36;;;;;;;;;;;13.80;99.90;;;;;;5021618;28;20369;-72
2022/08/26 01:26:05;;;;;;;;;;;13.80;99.90;;;;;;5022837;28;19923;-72
2022/08/26 01:28:32;;;;;;;;;;;13.80;99.90;;;;;;5019961;28;19921;-72
2022/08/26 01:30:58;;;;;;;;;;;13.80;99.90;;;;;;5023109;28;20141;-72
2022/08/26 01:33:30;;;;;;;;;;;13.80;99.90;;;;;;5004090;28;19945;-72
2022/08/26 01:35:56;;;;;;;;;;;13.80;99.90;;;;;;5004604;28;19917;-72
2022/08/26 01:38:21;;;;;;;;;;;13.80;99.90;;;;;;5018853;28;19929;-72
2022/08/26 01:40:47;;;;;;;;;;;13.80;99.90;;;;;;5019093;28;19917;-72
2022/08/26 01:43:16;;;;;;;;;;;13.70;99.90;;;;;;5018214;28;19924;-72
2022/08/26 01:45:42;;;;;;;;;;;13.70;99.90;;;;;;5034615;28;20352;-71
2022/08/26 01:48:10;;;;;;;;;;;13.60;99.90;;;;;;5020150;28;19924;-72
2022/08/26 01:50:37;;;;;;;;;;;13.60;99.90;;;;;;5022706;28;19975;-72
2022/08/26 01:53:05;;;;;;;;;;;13.60;99.90;;;;;;5013581;28;19917;-72
2022/08/26 01:55:30;;;;;;;;;;;13.60;99.90;;;;;;5016527;28;20001;-72
2022/08/26 01:57:58;;;;;;;;;;;13.60;99.90;;;;;;5013409;28;19925;-72
2022/08/26 02:00:24;;;;;;;;;;;13.60;99.90;;;;;;5021361;28;20226;-72
2022/08/26 02:03:35;;;;;;;;;;;13.50;99.90;;;;;;5024861;28;20402;-72
2022/08/26 02:05:53;;;;;;;;;;;13.40;99.90;;;;;;5005589;28;19921;-72
2022/08/26 02:08:21;;;;;;;;;;;13.40;99.90;;;;;;5015543;28;20312;-71
2022/08/26 02:10:47;;;;;;;;;;;13.40;99.90;;;;;;5012181;28;19916;-72
2022/08/26 02:13:12;;;;;;;;;;;13.30;99.90;;;;;;5021163;28;19925;-72
2022/08/26 02:15:40;;;;;;;;;;;13.30;99.90;;;;;;5018124;28;20023;-71
2022/08/26 02:18:06;;;;;;;;;;;13.30;99.90;;;;;;5015479;28;19925;-72
2022/08/26 02:20:32;;;;;;;;;;;13.20;99.90;;;;;;5019832;28;19964;-72
2022/08/26 02:22:58;;;;;;;;;;;13.10;99.90;;;;;;5015646;28;20013;-71
2022/08/26 02:25:26;;;;;;;;;;;13.10;99.90;;;;;;5015426;28;19921;-71
2022/08/26 02:27:53;;;;;;;;;;;13.10;99.90;;;;;;5013769;28;19956;-72
2022/08/26 02:30:20;;;;;;;;;;;13.10;99.90;;;;;;5026855;28;20040;-71
2022/08/26 02:32:46;;;;;;;;;;;13.10;99.90;;;;;;5026522;28;19917;-71
2022/08/26 02:35:13;;;;;;;;;;;13.00;99.90;;;;;;5014168;28;19923;-72
2022/08/26 02:37:38;;;;;;;;;;;12.90;99.90;;;;;;5011620;28;19918;-72
2022/08/26 02:40:06;;;;;;;;;;;12.80;99.90;;;;;;5015250;28;19924;-71
2022/08/26 02:42:32;;;;;;;;;;;12.80;99.90;;;;;;5012832;28;20405;-72
2022/08/26 02:44:57;;;;;;;;;;;12.70;99.90;;;;;;5016930;28;20062;-72
2022/08/26 02:47:24;;;;;;;;;;;12.60;99.90;;;;;;5016813;28;20000;-72
2022/08/26 02:49:49;;;;;;;;;;;12.60;99.90;;;;;;5020451;28;19924;-71
2022/08/26 02:52:15;;;;;;;;;;;12.50;99.90;;;;;;5016655;28;19917;-72
2022/08/26 02:54:41;;;;;;;;;;;12.40;99.90;;;;;;5013857;28;19921;-71
2022/08/26 02:57:07;;;;;;;;;;;12.50;99.90;;;;;;5015854;28;19917;-71
2022/08/26 02:59:34;;;;;;;;;;;12.50;99.90;;;;;;5021156;28;19952;-71
2022/08/26 03:02:00;;;;;;;;;;;12.40;99.90;;;;;;5012752;28;19917;-71
2022/08/26 03:04:25;;;;;;;;;;;12.40;99.90;;;;;;5017419;28;19971;-71
2022/08/26 03:06:51;;;;;;;;;;;12.40;99.90;;;;;;5019114;28;19924;-72
2022/08/26 03:09:19;;;;;;;;;;;12.30;99.90;;;;;;5021037;28;19917;-72
2022/08/26 03:11:45;;;;;;;;;;;12.30;99.90;;;;;;5022902;28;19917;-72
2022/08/26 03:14:12;;;;;;;;;;;12.30;99.90;;;;;;5012476;28;19949;-71
2022/08/26 03:16:37;;;;;;;;;;;12.30;99.90;;;;;;5014270;28;19929;-72
2022/08/26 03:19:05;;;;;;;;;;;12.20;99.90;;;;;;5015512;28;20001;-72
2022/08/26 03:21:31;;;;;;;;;;;12.20;99.90;;;;;;5018535;28;19917;-71
2022/08/26 03:23:56;;;;;;;;;;;12.20;99.90;;;;;;5014131;28;20217;-71
2022/08/26 03:26:22;;;;;;;;;;;12.10;99.90;;;;;;5016507;28;19956;-71
2022/08/26 03:31:32;;;;;;;;;;;12.10;99.90;;;;;;5016945;28;19924;-71
2022/08/26 03:33:58;;;;;;;;;;;12.10;99.90;;;;;;5011457;28;19917;-72
2022/08/26 03:36:23;;;;;;;;;;;12.10;99.90;;;;;;5017319;28;19924;-71
2022/08/26 03:38:49;;;;;;;;;;;12.10;99.90;;;;;;5016280;28;19917;-71
2022/08/26 03:41:15;;;;;;;;;;;12.10;99.90;;;;;;5021448;28;19916;-72
2022/08/26 03:43:40;;;;;;;;;;;12.10;99.90;;;;;;5015126;28;19925;-72
2022/08/26 03:46:10;;;;;;;;;;;12.00;99.90;;;;;;5015238;28;20290;-71
2022/08/26 03:48:35;;;;;;;;;;;12.00;99.90;;;;;;5014234;28;19921;-71
2022/08/26 03:51:01;;;;;;;;;;;12.00;99.90;;;;;;5017806;28;19970;-71
2022/08/26 03:53:27;;;;;;;;;;;12.00;99.90;;;;;;5015205;28;19917;-72
2022/08/26 03:55:52;;;;;;;;;;;11.90;99.90;;;;;;5016307;28;20338;-71
2022/08/26 03:58:19;;;;;;;;;;;11.90;99.90;;;;;;5016131;28;19918;-71
2022/08/26 04:00:45;;;;;;;;;;;11.80;99.90;;;;;;5021204;28;19916;-71
2022/08/26 04:03:10;;;;;;;;;;;11.80;99.90;;;;;;5016733;28;19929;-72
2022/08/26 04:05:36;;;;;;;;;;;11.70;99.90;;;;;;5020922;28;19921;-72
2022/08/26 04:08:04;;;;;;;;;;;11.70;99.90;;;;;;5022270;28;19964;-72
2022/08/26 04:10:30;;;;;;;;;;;11.70;99.90;;;;;;5018673;28;19924;-71
2022/08/26 04:12:56;;;;;;;;;;;11.80;99.90;;;;;;5020440;28;19948;-72
2022/08/26 04:15:22;;;;;;;;;;;11.80;99.90;;;;;;5020416;28;19917;-72
2022/08/26 04:17:48;;;;;;;;;;;11.80;99.90;;;;;;5017630;28;19929;-72
2022/08/26 04:20:14;;;;;;;;;;;11.80;99.90;;;;;;5014779;28;20423;-72
2022/08/26 04:22:40;;;;;;;;;;;11.80;99.90;;;;;;5014098;28;20000;-72
2022/08/26 04:25:07;;;;;;;;;;;11.80;99.90;;;;;;5018539;28;19917;-71
2022/08/26 04:27:32;;;;;;;;;;;11.90;99.90;;;;;;5020131;28;19985;-72
2022/08/26 04:29:58;;;;;;;;;;;11.90;99.90;;;;;;5018950;28;20007;-71
2022/08/26 04:32:23;;;;;;;;;;;11.90;99.90;;;;;;5016522;28;19925;-72
2022/08/26 04:34:49;;;;;;;;;;;11.90;99.90;;;;;;5018613;28;20311;-72
2022/08/26 04:37:15;;;;;;;;;;;11.90;99.90;;;;;;5018139;28;20432;-72
2022/08/26 04:39:40;;;;;;;;;;;11.90;99.90;;;;;;5017228;28;20384;-72
2022/08/26 04:42:06;;;;;;;;;;;12.00;99.90;;;;;;5026436;28;19924;-72
2022/08/26 04:44:33;;;;;;;;;;;12.10;99.90;;;;;;5019436;28;19925;-72
2022/08/26 04:46:59;;;;;;;;;;;12.20;99.90;;;;;;5018785;28;20384;-72
2022/08/26 04:49:24;;;;;;;;;;;12.30;99.90;;;;;;5020213;28;19970;-72
2022/08/26 04:51:51;;;;;;;;;;;12.30;99.90;;;;;;5028199;28;20253;-72
2022/08/26 04:54:17;;;;;;;;;;;12.40;99.90;;;;;;5017474;28;19925;-72
2022/08/26 04:56:44;;;;;;;;;;;12.40;99.90;;;;;;5020441;28;19924;-72
2022/08/26 04:59:14;;;;;;;;;;;12.40;99.90;;;;;;5020855;28;19917;-71
2022/08/26 05:01:43;;;;;;;;;;;12.40;99.90;;;;;;5015644;28;20419;-72
2022/08/26 05:04:09;;;;;;;;;;;12.40;99.90;;;;;;5015939;28;20390;-72
2022/08/26 05:06:34;;;;;;;;;;;12.50;99.90;;;;;;5017963;28;20229;-72
2022/08/26 05:09:00;;;;;;;;;;;12.50;99.90;;;;;;5017129;28;19921;-72
2022/08/26 05:11:26;;;;;;;;;;;12.50;99.90;;;;;;5014664;28;19917;-72
2022/08/26 05:13:51;;;;;;;;;;;12.50;99.90;;;;;;5016393;28;20347;-72
2022/08/26 05:16:17;;;;;;;;;;;12.60;99.90;;;;;;5015109;28;20261;-72
2022/08/26 05:18:44;;;;;;;;;;;12.60;99.90;;;;;;5017104;28;20525;-72
2022/08/26 05:21:23;;;;;;;;;;;12.60;99.90;;;;;;5016939;28;19921;-72
2022/08/26 05:23:50;;;;;;;;;;;12.70;99.90;;;;;;5017532;28;20403;-72
2022/08/26 05:26:16;;;;;;;;;;;12.70;99.90;;;;;;5019001;28;19924;-71
2022/08/26 05:28:41;;;;;;;;;;;12.80;99.90;;;;;;5020088;28;19921;-72
2022/08/26 05:31:11;;;;;;;;;;;12.90;99.90;;;;;;5020775;28;19916;-72
2022/08/26 05:33:36;;;;;;;;;;;13.00;99.90;;;;;;5015640;28;19917;-72
2022/08/26 05:36:05;;;;;;;;;;;13.10;99.90;;;;;;5016363;28;20380;-72
2022/08/26 05:38:30;;;;;;;;;;;13.10;99.90;;;;;;4999959;28;20183;-72
2022/08/26 05:40:56;;;;;;;;;;;13.30;99.90;;;;;;5012215;28;20465;-72
2022/08/26 05:43:21;;;;;;;;;;;13.40;99.90;;;;;;5017244;28;19929;-71
2022/08/26 05:45:48;;;;;;;;;;;13.40;99.90;;;;;;5014191;28;19971;-71
2022/08/26 05:48:15;;;;;;;;;;;13.50;99.90;;;;;;5019346;28;19974;-72
2022/08/26 05:50:42;;;;;;;;;;;13.60;99.90;;;;;;5016121;28;20404;-71
2022/08/26 05:53:09;;;;;;;;;;;13.70;99.90;;;;;;5021563;28;19923;-72
2022/08/26 05:55:40;;;;;;;;;;;13.80;99.90;;;;;;5017109;28;20340;-72
2022/08/26 05:58:06;;;;;;;;;;;13.90;99.90;;;;;;5019879;28;19948;-72
2022/08/26 06:00:31;;;;;;;;;;;13.90;99.90;;;;;;5017722;28;20259;-72
2022/08/26 06:02:57;;;;;;;;;;;14.10;99.90;;;;;;5014353;28;19925;-72
2022/08/26 06:05:22;;;;;;;;;;;14.10;99.90;;;;;;5014546;28;19921;-72
2022/08/26 06:08:30;;;;;;;;;;;14.20;99.90;;;;;;5013865;28;20528;-72
2022/08/26 06:11:05;;;;;;;;;;;14.30;99.90;;;;;;5007970;28;20292;-72
2022/08/26 06:13:32;;;;;;;;;;;14.40;99.90;;;;;;5013952;28;20345;-72
2022/08/26 06:15:58;;;;;;;;;;;14.60;99.90;;;;;;5019967;28;19964;-72
2022/08/26 06:18:33;;;;;;;;;;;14.70;99.90;;;;;;5017490;28;19921;-73
2022/08/26 06:20:59;;;;;;;;;;;14.70;99.90;;;;;;5017320;28;19923;-73
2022/08/26 06:26:11;;;;;;;;;;;15.00;99.90;;;;;;5013150;28;19924;-73
2022/08/26 06:28:36;;;;;;;;;;;15.00;99.90;;;;;;4996185;28;19921;-73
2022/08/26 06:31:02;;;;;;;;;;;15.20;99.90;;;;;;5013349;28;20304;-73
2022/08/26 06:33:28;;;;;;;;;;;15.30;99.90;;;;;;5011454;28;19952;-73
2022/08/26 06:35:53;;;;;;;;;;;15.40;99.90;;;;;;5018426;28;19957;-73
2022/08/26 06:38:19;;;;;;;;;;;15.50;99.90;;;;;;5013400;28;19928;-73
2022/08/26 06:40:49;;;;;;;;;;;15.50;99.90;;;;;;5010658;28;19924;-73
2022/08/26 06:43:16;;;;;;;;;;;15.60;99.90;;;;;;5010907;28;20376;-73
2022/08/26 06:45:44;;;;;;;;;;;15.80;99.90;;;;;;5009172;28;19922;-72
2022/08/26 06:48:09;;;;;;;;;;;15.90;99.90;;;;;;5010251;28;19936;-73
2022/08/26 06:50:35;;;;;;;;;;;16.00;99.90;;;;;;5011388;28;20354;-73
2022/08/26 06:53:00;;;;;;;;;;;16.00;99.90;;;;;;5020856;28;19921;-72
2022/08/26 06:55:26;;;;;;;;;;;16.10;99.90;;;;;;5012388;28;19928;-73
2022/08/26 06:57:52;;;;;;;;;;;16.30;99.90;;;;;;5013735;28;22073;-73
2022/08/26 07:00:18;;;;;;;;;;;16.50;99.90;;;;;;5017512;28;19921;-73
2022/08/26 07:02:44;;;;;;;;;;;16.70;99.90;;;;;;5011268;28;19971;-72
2022/08/26 07:05:09;;;;;;;;;;;16.90;99.90;;;;;;5029490;28;20260;-73
2022/08/26 07:07:35;;;;;;;;;;;16.80;99.90;;;;;;5016119;28;20015;-73
2022/08/26 07:10:01;;;;;;;;;;;17.10;99.90;;;;;;5018060;28;19917;-72
2022/08/26 07:12:26;;;;;;;;;;;17.30;99.90;;;;;;5013689;28;19949;-73
2022/08/26 07:14:52;;;;;;;;;;;17.20;99.90;;;;;;4999950;28;19917;-73
2022/08/26 07:17:18;;;;;;;;;;;17.50;99.90;;;;;;5013785;28;19971;-72
2022/08/26 07:19:44;;;;;;;;;;;18.10;99.90;;;;;;5022876;28;20388;-73
2022/08/26 07:22:09;;;;;;;;;;;18.40;99.90;;;;;;5016893;28;20034;-73
2022/08/26 07:24:36;;;;;;;;;;;18.60;99.90;;;;;;5025671;28;19929;-73
2022/08/26 07:27:03;;;;;;;;;;;18.70;99.90;;;;;;5009137;28;20686;-73
2022/08/26 07:29:28;;;;;;;;;;;18.60;99.90;;;;;;5009857;28;19917;-74
2022/08/26 07:31:54;;;;;;;;;;;18.50;99.90;;;;;;5013268;28;19939;-73
2022/08/26 07:34:21;;;;;;;;;;;18.50;99.90;;;;;;5004549;28;19917;-73
2022/08/26 07:36:47;;;;;;;;;;;18.50;99.90;;;;;;5005392;28;19917;-73
2022/08/26 07:39:12;;;;;;;;;;;18.90;99.90;;;;;;5006099;28;19921;-72
2022/08/26 07:41:38;;;;;;;;;;;19.10;99.90;;;;;;5005154;28;19940;-73
2022/08/26 07:44:04;;;;;;;;;;;19.30;99.90;;;;;;5009258;28;19925;-73
2022/08/26 07:46:29;;;;;;;;;;;19.30;99.90;;;;;;5015642;28;19927;-73
2022/08/26 07:48:55;;;;;;;;;;;19.70;99.90;;;;;;5007735;28;20377;-72
2022/08/26 07:51:21;;;;;;;;;;;19.90;99.90;;;;;;5010515;28;19921;-72
2022/08/26 07:53:47;;;;;;;;;;;23.50;99.90;;;;;;5014336;28;19917;-72
2022/08/26 07:56:12;;;;;;;;;;;25.60;99.90;;;;;;5019274;28;19940;-73
2022/08/26 07:58:38;;;;;;;;;;;26.80;98.40;;;;;;5016276;28;19925;-73
2022/08/26 08:01:04;;;;;;;;;;;27.80;94.30;;;;;;5016468;28;20000;-73
2022/08/26 08:03:29;;;;;;;;;;;27.80;90.60;;;;;;5019150;28;19937;-72
2022/08/26 08:05:55;;;;;;;;;;;27.60;92.60;;;;;;5018164;28;19924;-73
2022/08/26 08:08:21;;;;;;;;;;;29.60;90.00;;;;;;5023035;28;19928;-73
2022/08/26 08:10:46;;;;;;;;;;;29.40;88.30;;;;;;5014323;28;19921;-73
2022/08/26 08:13:13;;;;;;;;;;;30.90;79.10;;;;;;5015014;28;20773;-73
2022/08/26 08:15:38;;;;;;;;;;;31.30;77.60;;;;;;5012427;28;19922;-73
2022/08/26 08:18:05;;;;;;;;;;;31.70;73.60;;;;;;5016875;28;19926;-72
2022/08/26 08:20:31;;;;;;;;;;;32.20;70.90;;;;;;5016581;28;19921;-73
2022/08/26 08:22:56;;;;;;;;;;;32.70;69.00;;;;;;5015724;28;19932;-72
2022/08/26 08:25:22;;;;;;;;;;;33.60;68.70;;;;;;5015945;28;19928;-72
2022/08/26 08:27:48;;;;;;;;;;;33.20;64.90;;;;;;5013327;28;19921;-72
2022/08/26 08:30:15;;;;;;;;;;;32.40;64.60;;;;;;5004305;28;19946;-73
2022/08/26 08:32:42;;;;;;;;;;;33.30;63.80;;;;;;5018390;28;19928;-73
2022/08/26 08:35:09;;;;;;;12.10;9.13;;;33.60;61.80;;;;;;5013121;28;19917;-72
2022/08/26 08:37:35;;;;;;;11.90;10.30;;;34.50;60.20;;;;;;5016897;28;20796;-72
2022/08/26 08:40:01;;;;;;;;;;;34.40;57.80;;;;;;5013238;28;20440;-72
2022/08/26 08:42:37;;;;;;;;;;;34.20;56.70;;;;;;5015650;28;19923;-75
2022/08/26 08:45:11;;;;;;;;;;;34.80;58.60;;;;;;5012656;28;20311;-75
2022/08/26 08:47:36;;;;;;;;;;;35.50;54.60;;;;;;5011054;28;20493;-74
2022/08/26 08:50:10;;;;;;;;;;;36.00;53.70;;;;;;5023506;28;19925;-75
2022/08/26 08:52:36;;;;;;;;;;;35.30;53.00;;;;;;5017444;28;20693;-75
2022/08/26 08:55:03;;;;;;;;;;;35.80;52.80;;;;;;5015325;28;19913;-75
2022/08/26 08:57:35;;;;;;;;;;;35.80;51.80;;;;;;5017686;28;19939;-75
2022/08/26 09:00:21;;;;;;;;;;;35.30;50.90;;;;;;5023762;28;20040;-76
2022/08/26 09:03:02;;;;;;;;;;;35.30;54.40;;;;;;5018971;28;20070;-75
2022/08/26 09:05:30;;;;;;;;;;;35.20;50.80;;;;;;5016066;28;19925;-75
2022/08/26 09:08:16;;;;;;;;;;;34.70;52.60;;;;;;5008423;28;20339;-75
2022/08/26 09:10:44;;;;;;;;;;;35.10;50.90;;;;;;5014302;28;19913;-74
2022/08/26 09:13:12;;;;;;;;;;;35.20;47.50;;;;;;5018805;28;19913;-75
2022/08/26 09:15:56;;;;;;;;;;;35.10;50.40;;;;;;5020979;28;19913;-74
2022/08/26 09:18:21;;;;;;;;;;;35.10;50.90;;;;;;5005070;28;19925;-74
2022/08/26 09:20:58;;;;;;;;;;;34.90;48.80;;;;;;5004798;28;19913;-73
2022/08/26 09:23:24;;;;;;;;;;;34.60;50.50;;;;;;5003589;28;19967;-73
2022/08/26 09:25:49;;;;;;;;;;;34.60;50.70;;;;;;5008939;28;19921;-74
2022/08/26 09:28:17;;;;;;;;;;;34.70;51.80;;;;;;5013423;28;19920;-73
2022/08/26 09:30:44;;;;;;;;;;;34.10;49.50;;;;;;4994256;28;19913;-73
2022/08/26 09:33:14;;;;;;;;;;;34.20;50.60;;;;;;4998424;28;19917;-73
2022/08/26 09:35:42;;;;;;;;;;;33.80;51.20;;;;;;4999483;28;19949;-73
2022/08/26 09:38:31;;;;;;;;;;;34.00;48.20;;;;;;5002427;28;19913;-73
2022/08/26 09:40:58;;;;;;;;;;;33.80;51.60;;;;;;5001805;28;19913;-73
2022/08/26 09:43:24;;;;;;;;;;;34.50;45.40;;;;;;5015434;28;19928;-73
2022/08/26 09:45:55;;;;;;;;;;;34.20;48.00;;;;;;5003675;28;19972;-73
2022/08/26 09:48:25;;;;;;;;;;;34.50;46.60;;;;;;5005547;28;19920;-74
2022/08/26 09:50:52;;;;;;;;;;;34.50;47.90;;;;;;5004869;28;20028;-73
2022/08/26 09:53:20;;;;;;;;;;;34.50;50.30;;;;;;5006556;28;19913;-73
2022/08/26 09:55:47;;;;;;;;;;;33.70;49.80;;;;;;5006293;28;19920;-73
2022/08/26 09:58:31;;;;;;;;;;;34.10;43.80;;;;;;5011093;28;20617;-74
2022/08/26 10:00:57;;;;;;;;;;;34.60;48.00;;;;;;5005776;28;19959;-73
2022/08/26 10:03:26;;;;;;;;;;;34.30;47.20;;;;;;5001514;28;19921;-73
2022/08/26 10:06:00;;;;;;;;;;;34.50;47.90;;;;;;5014581;28;19960;-73
2022/08/26 10:08:30;;;;;;;;;;;34.40;45.70;;;;;;4999540;28;19913;-73
2022/08/26 10:10:57;;;;;;;;;;;34.60;49.50;;;;;;5012194;28;20036;-73
2022/08/26 10:13:26;;;;;;;;;;;34.60;45.50;;;;;;5013873;28;19949;-73
2022/08/26 10:15:57;;;;;;;;;;;34.40;42.80;;;;;;4999304;28;19913;-74
2022/08/26 10:18:25;;;;;;;;;;;34.30;44.10;;;;;;5020007;28;19921;-74
2022/08/26 10:21:12;;;;;;;;;;;34.50;45.10;;;;;;5022649;28;19923;-74
2022/08/26 10:23:43;;;;;;;;;;;34.10;44.10;;;;;;5014945;28;19917;-73
2022/08/26 10:26:15;;;;;;;;;;;33.20;43.70;;;;;;5023404;28;19928;-73
2022/08/26 10:28:44;;;;;;;;;;;34.00;42.80;;;;;;5020596;28;21302;-74
2022/08/26 10:31:10;;;;;;;;;;;34.10;41.50;;;;;;5026231;28;19917;-73
2022/08/26 10:33:36;;;;;;;;;;;33.90;46.50;;;;;;5017129;28;19917;-73
2022/08/26 10:36:04;;;;;;;;;;;32.70;48.60;;;;;;5018141;28;20025;-74
2022/08/26 10:38:37;;;;;;;;;;;31.00;46.20;;;;;;5029104;28;19908;-73
2022/08/26 10:41:10;;;;;;;;;;;30.30;49.30;;;;;;5011585;28;20332;-73
2022/08/26 10:43:40;;;;;;;;;;;30.90;52.60;;;;;;5034145;28;19929;-74
2022/08/26 10:46:10;;;;;;;;;;;32.00;54.10;;;;;;5019604;28;19916;-73
2022/08/26 10:48:39;;;;;;;;;;;32.00;49.70;;;;;;5028726;28;19921;-73
2022/08/26 10:51:05;;;;;;;;;;;32.70;46.70;;;;;;5030878;28;19985;-74
2022/08/26 10:53:49;;;;;;;;;;;33.50;51.60;;;;;;5025428;28;19916;-73
2022/08/26 10:56:28;;;;;;;;;;;33.60;45.50;;;;;;5029551;28;19917;-74
2022/08/26 10:59:03;;;;;;;;;;;34.30;44.00;;;;;;5020707;28;19966;-73
2022/08/26 11:01:44;;;;;;;;;;;34.60;45.30;;;;;;5015711;28;19924;-73
2022/08/26 11:04:22;;;;;;;;;;;34.90;44.20;;;;;;5008209;28;19925;-73
2022/08/26 11:06:47;;;;;;;;;;;34.90;46.20;;;;;;5003802;28;20523;-73
2022/08/26 11:09:32;;;;;;;;;;;33.80;47.50;;;;;;5010206;28;20448;-73
2022/08/26 11:11:58;;;;;;;;;;;34.20;46.80;;;;;;5003568;28;19917;-73
2022/08/26 11:14:23;;;;;;;;;;;34.10;41.60;;;;;;5007291;28;19917;-74
2022/08/26 11:16:53;;;;;;;;;;;34.00;47.20;;;;;;5006433;28;20008;-73
2022/08/26 11:19:37;;;;;;;;;;;33.30;47.20;;;;;;5012117;28;19925;-73
2022/08/26 11:22:21;;;;;;;;;;;31.60;45.20;;;;;;5010835;28;19921;-73
2022/08/26 11:24:55;;;;;;;;;;;31.30;46.80;;;;;;5005472;28;20359;-73
2022/08/26 11:27:24;;;;;;;;;;;31.40;46.10;;;;;;5013189;28;19917;-74
2022/08/26 11:30:09;;;;;;;;;;;30.60;50.80;;;;;;4998566;28;20258;-73
2022/08/26 11:32:37;;;;;;;;;;;29.30;54.80;;;;;;5003865;28;19918;-73
2022/08/26 11:35:05;;;;;;;;;;;27.80;54.50;;;;;;5000696;28;20416;-73
2022/08/26 11:37:32;;;;;;;;;;;26.30;59.30;;;;;;5000617;28;20375;-73
2022/08/26 11:39:59;;;;;;;;;;;25.20;63.70;;;;;;5018511;28;19928;-73
2022/08/26 11:42:35;;;;;;;;;;;24.20;67.00;;;;;;5007919;28;20321;-73
2022/08/26 11:45:14;;;;;;;;;;;23.60;74.50;;;;;;5011839;28;20447;-72
2022/08/26 11:47:40;;;;;;;;;;;23.20;82.70;;;;;;5008552;28;19978;-72
2022/08/26 11:50:06;;;;;;;;;;;23.40;82.80;;;;;;5011981;28;20412;-72
2022/08/26 11:52:32;;;;;;;;;;;24.50;91.60;;;;;;5034549;28;19913;-72
2022/08/26 11:55:02;;;;;;;;;;;25.60;67.30;;;;;;4678036;28;10000448;-72
2022/08/26 11:57:30;;;;;;;;;;;26.50;67.80;;;;;;5025599;28;19929;-72
2022/08/26 11:59:56;;;;;;;;;;;27.00;57.10;;;;;;5006213;28;19972;-73
2022/08/26 12:02:22;;;;;;;;;;;27.40;58.50;;;;;;5021239;28;19968;-72
2022/08/26 12:04:49;;;;;;;;;;;27.70;62.60;;;;;;5019842;28;20198;-73
2022/08/26 12:07:15;;;;;;;;;;;27.70;59.70;;;;;;5006642;28;19917;-72
2022/08/26 12:09:55;;;;;;;;;;;28.20;62.80;;;;;;5019188;28;19923;-73
2022/08/26 12:12:22;;;;;;;;;;;28.30;62.70;;;;;;5015762;28;19917;-72
2022/08/26 12:14:48;;;;;;;;;;;28.60;61.70;;;;;;5060363;23;20012;-73
2022/08/26 12:17:15;;;;;;;;;;;29.00;57.00;;;;;;5045429;28;20015;-73
2022/08/26 12:19:41;;;;;;;;;;;29.40;57.20;;;;;;5034976;28;19921;-72
2022/08/26 12:22:13;;;;;;;;;;;29.60;56.00;;;;;;5046507;28;19986;-73
2022/08/26 12:24:50;;;;;;;;;;;29.70;52.00;;;;;;5043472;28;20479;-73
2022/08/26 12:27:19;;;;;;;;;;;29.60;55.10;;;;;;5049285;28;19962;-73
2022/08/26 12:29:44;;;;;;;;;;;28.80;53.00;;;;;;5045734;28;19917;-73
2022/08/26 12:32:16;;;;;;;;;;;28.40;55.50;;;;;;5032586;28;20288;-73
2022/08/26 12:34:42;;;;;;;;;;;28.00;64.20;;;;;;5044426;28;19916;-73
2022/08/26 12:37:10;;;;;;;;;;;27.40;63.30;;;;;;5037939;28;19962;-74
2022/08/26 12:39:37;;;;;;;;;;;26.70;66.70;;;;;;5040369;28;19987;-73
2022/08/26 12:42:14;;;;;;;;;;;26.60;61.30;;;;;;5035653;28;20380;-73
2022/08/26 12:44:45;;;;;;;;;;;26.10;62.40;;;;;;5033259;28;19932;-73
2022/08/26 12:47:32;;;;;;;;;;;25.60;67.10;;;;;;5029590;28;19998;-73
2022/08/26 12:50:01;;;;;;;;;;;25.10;66.40;;;;;;5026490;28;20706;-72
2022/08/26 12:52:31;;;;;;;;;;;24.40;71.50;;;;;;5021499;28;19964;-73
2022/08/26 12:55:06;;;;;;;;;;;23.90;77.10;;;;;;5031992;28;19917;-73
2022/08/26 12:57:33;;;;;;;;;;;23.50;85.00;;;;;;5025427;28;20373;-73
2022/08/26 13:00:18;;;;;;;;;;;23.10;90.90;;;;;;5055678;28;19922;-72
2022/08/26 13:02:43;;;;;;;;;;;22.80;86.90;;;;;;5045870;28;19913;-72
2022/08/26 13:05:18;;;;;;;;;;;22.50;95.20;;;;;;5051522;28;20357;-73
2022/08/26 13:07:43;;;;;;;;;;;22.70;93.40;;;;;;5033622;28;19916;-73
2022/08/26 13:10:30;;;;;;;;;;;23.40;81.80;;;;;;5046565;28;19923;-73
2022/08/26 13:12:55;;;;;;;;;;;24.40;82.40;;;;;;5027653;28;19917;-73
2022/08/26 13:15:21;;;;;;;;;;;25.40;64.00;;;;;;5030883;28;19916;-72
2022/08/26 13:17:46;;;;;;;;;;;25.90;64.50;;;;;;5032631;28;20423;-73
2022/08/26 13:20:12;;;;;;;;;;;26.40;64.50;;;;;;5023909;28;19958;-72
2022/08/26 13:22:37;;;;;;;;;;;26.70;57.60;;;;;;5048049;28;20380;-72
2022/08/26 13:25:03;;;;;;;;;;;26.80;58.40;;;;;;5036643;28;19979;-72
2022/08/26 13:27:29;;;;;;;;;;;27.20;60.10;;;;;;5040092;28;19923;-72
2022/08/26 13:29:56;;;;;;;;;;;27.50;62.10;;;;;;5038516;28;19923;-73
2022/08/26 13:32:22;;;;;;;;;;;27.80;58.90;;;;;;5039813;28;20031;-74
2022/08/26 13:34:48;;;;;;;;;;;27.80;54.70;;;;;;5047044;28;19917;-73
2022/08/26 13:37:14;;;;;;;;;;;28.10;55.10;;;;;;5042392;28;19917;-73
2022/08/26 13:39:40;;;;;;;;;;;28.10;56.20;;;;;;5044474;28;20334;-73
2022/08/26 13:42:06;;;;;;;;;;;27.90;62.30;;;;;;5042510;28;20335;-73
2022/08/26 13:44:32;;;;;;;;;;;27.50;56.30;;;;;;5046938;28;20069;-73
2022/08/26 13:46:57;;;;;;;;;;;27.00;63.00;;;;;;5039072;28;20316;-73
2022/08/26 13:49:23;;;;;;;;;;;26.70;63.20;;;;;;5040941;28;19917;-73
2022/08/26 13:51:48;;;;;;;;;;;26.30;59.30;;;;;;5050903;28;19967;-73
2022/08/26 13:54:14;;;;;;;;;;;25.80;65.90;;;;;;5037782;28;19916;-75
2022/08/26 13:56:39;;;;;;;;;;;25.40;60.20;;;;;;5052035;28;20291;-72
2022/08/26 13:59:05;;;;;;;;;;;24.90;68.60;;;;;;5046501;28;19923;-73
2022/08/26 14:01:31;;;;;;;;;;;24.60;74.10;;;;;;5043159;28;19924;-73
2022/08/26 14:03:56;;;;;;;;;;;24.40;67.90;;;;;;5044009;28;19925;-73
2022/08/26 14:06:22;;;;;;;;;;;24.30;77.20;;;;;;5022222;28;19917;-73
2022/08/26 14:08:48;;;;;;;;;;;24.10;69.60;;;;;;5039711;28;20104;-73
2022/08/26 14:11:14;;;;;;;;;;;24.10;75.10;;;;;;5046839;28;19952;-73
2022/08/26 14:13:39;;;;;;;;;;;24.00;77.40;;;;;;5055988;28;20021;-72
2022/08/26 14:16:10;;;;;;;;;;;23.90;80.00;;;;;;5047393;28;19917;-73
2022/08/26 14:18:38;;;;;;;;;;;24.00;71.20;;;;;;5047420;28;19923;-73
2022/08/26 14:21:04;;;;;;;;;;;23.90;68.80;;;;;;5050238;28;19917;-72
2022/08/26 14:23:30;;;;;;;;;;;23.90;76.80;;;;;;5051513;28;19970;-73
2022/08/26 14:25:55;;;;;;;;;;;24.20;77.10;;;;;;5045732;28;19960;-72